Time;durP1;ratioP1;P1;durP2;ratioP2;P2;SDS_P1;SDS_P2;PMS_P1;PMS_P2;Temp;Humidity;BMP_temperature;BMP_pressure;BME280_temperature;BME280_humidity;BME280_pressure;Samples;Min_cycle;Max_cycle;Signal;HPM_P1;HPM_P2
2022/10/07 00:00:44;;;;;;;3.83;2.10;;;11.20;99.90;;;;;;5010653;28;20456;-49
2022/10/07 00:03:13;;;;;;;2.37;2.10;;;11.20;99.90;;;;;;5010509;28;20519;-48
2022/10/07 00:05:40;;;;;;;3.37;1.93;;;11.30;99.90;;;;;;5010491;28;20547;-47
2022/10/07 00:08:07;;;;;;;2.80;2.40;;;11.30;99.90;;;;;;5010602;28;20489;-48
2022/10/07 00:10:38;;;;;;;3.60;2.40;;;11.40;99.90;;;;;;5010367;28;21020;-47
2022/10/07 00:13:05;;;;;;;4.03;2.27;;;11.30;99.90;;;;;;5010171;28;20960;-49
2022/10/07 00:15:31;;;;;;;3.13;2.13;;;11.00;99.90;;;;;;5010320;28;20491;-48
2022/10/07 00:17:58;;;;;;;3.30;2.10;;;11.00;99.90;;;;;;5010162;28;20876;-48
2022/10/07 00:20:27;;;;;;;2.23;2.03;;;11.00;99.90;;;;;;5010296;28;20486;-49
2022/10/07 00:22:53;;;;;;;3.00;2.10;;;11.10;99.90;;;;;;5008812;28;20480;-49
2022/10/07 00:25:21;;;;;;;2.60;1.73;;;11.00;99.90;;;;;;5010095;28;20511;-48
2022/10/07 00:27:49;;;;;;;5.47;2.00;;;10.60;99.90;;;;;;5010319;28;20448;-50
2022/10/07 00:30:16;;;;;;;3.20;2.30;;;10.60;99.90;;;;;;5010062;28;21132;-47
2022/10/07 00:32:43;;;;;;;8.63;2.40;;;10.60;99.90;;;;;;5010117;28;20451;-48
2022/10/07 00:35:10;;;;;;;3.80;2.37;;;10.50;99.90;;;;;;5009678;28;20567;-49
2022/10/07 00:37:41;;;;;;;4.50;2.23;;;10.70;99.90;;;;;;5010115;28;20450;-48
2022/10/07 00:40:11;;;;;;;2.90;2.10;;;10.60;99.90;;;;;;5010321;28;20558;-48
2022/10/07 00:42:39;;;;;;;3.00;2.20;;;10.80;99.90;;;;;;5009869;28;20929;-47
2022/10/07 00:45:13;;;;;;;3.03;2.20;;;10.90;99.90;;;;;;5009691;28;20470;-48
2022/10/07 00:47:43;;;;;;;4.60;2.40;;;10.80;99.90;;;;;;5009477;28;20453;-47
2022/10/07 00:50:13;;;;;;;3.70;2.40;;;10.80;99.90;;;;;;5009995;28;20438;-48
2022/10/07 00:52:48;;;;;;;4.43;2.43;;;10.80;99.90;;;;;;5009896;28;20441;-48
2022/10/07 00:55:19;;;;;;;3.73;2.33;;;10.90;99.90;;;;;;5009482;28;20844;-48
2022/10/07 00:57:48;;;;;;;2.87;2.00;;;11.00;99.90;;;;;;5009811;28;20811;-48
2022/10/07 01:00:16;;;;;;;4.10;2.57;;;11.10;99.90;;;;;;5009493;28;20483;-48
2022/10/07 01:02:43;;;;;;;3.50;1.93;;;11.10;99.90;;;;;;5009909;28;20465;-48
2022/10/07 01:05:12;;;;;;;5.20;2.50;;;11.10;99.90;;;;;;5009593;28;20508;-48
2022/10/07 01:07:42;;;;;;;2.80;2.50;;;11.20;99.90;;;;;;5009510;28;20968;-48
2022/10/07 01:10:11;;;;;;;3.63;2.40;;;11.40;99.90;;;;;;5009419;28;20450;-48
2022/10/07 01:12:50;;;;;;;3.73;2.00;;;11.40;99.90;;;;;;5009468;28;20451;-49
2022/10/07 01:15:23;;;;;;;3.77;2.30;;;10.60;99.90;;;;;;5009489;28;20512;-48
2022/10/07 01:17:56;;;;;;;2.93;2.20;;;10.00;99.90;;;;;;5009432;28;20447;-48
2022/10/07 01:20:30;;;;;;;3.07;2.80;;;9.90;99.90;;;;;;5009212;28;20475;-48
2022/10/07 01:23:17;;;;;;;4.30;3.00;;;9.90;99.90;;;;;;5008897;28;20483;-50
2022/10/07 01:26:03;;;;;;;5.93;3.30;;;9.90;99.90;;;;;;5009752;28;20474;-48
2022/10/07 01:28:37;;;;;;;4.63;2.73;;;9.90;99.90;;;;;;5009185;28;20444;-48
2022/10/07 01:31:07;;;;;;;6.63;2.40;;;10.10;99.90;;;;;;5009223;28;20444;-50
2022/10/07 01:33:38;;;;;;;2.90;2.10;;;10.20;99.90;;;;;;5008647;28;20443;-48
2022/10/07 01:36:07;;;;;;;6.73;2.67;;;10.30;99.90;;;;;;5009079;28;20468;-48
2022/10/07 01:38:37;;;;;;;3.00;2.43;;;10.60;99.90;;;;;;5009057;28;21031;-47
2022/10/07 01:41:09;;;;;;;2.90;2.30;;;10.70;99.90;;;;;;5009042;28;21014;-48
2022/10/07 01:43:38;;;;;;;6.43;2.07;;;10.80;99.90;;;;;;5008915;28;20451;-48
2022/10/07 01:46:08;;;;;;;2.43;1.93;;;11.00;99.90;;;;;;5008893;28;20989;-47
2022/10/07 01:48:35;;;;;;;4.30;2.07;;;11.00;99.90;;;;;;5008915;28;20455;-47
2022/10/07 01:51:02;;;;;;;6.00;2.10;;;11.00;99.90;;;;;;5009063;28;20439;-47
2022/10/07 01:53:43;;;;;;;2.83;1.93;;;10.80;99.90;;;;;;5008710;28;20858;-48
2022/10/07 01:56:26;;;;;;;3.60;2.00;;;10.80;99.90;;;;;;5010104;28;20463;-48
2022/10/07 01:59:19;;;;;;;2.23;1.73;;;10.80;99.90;;;;;;5009045;28;20880;-48
2022/10/07 02:01:53;;;;;;;5.43;1.90;;;10.80;99.90;;;;;;5008728;28;20483;-48
2022/10/07 02:04:42;;;;;;;2.20;2.00;;;10.40;99.90;;;;;;5008526;28;20467;-48
2022/10/07 02:07:21;;;;;;;2.90;2.10;;;10.30;99.90;;;;;;5008922;28;20455;-48
2022/10/07 02:09:54;;;;;;;5.10;1.93;;;10.50;99.90;;;;;;5008723;28;20441;-47
2022/10/07 02:12:24;;;;;;;3.07;2.00;;;10.60;99.90;;;;;;5008752;28;20842;-47
2022/10/07 02:14:56;;;;;;;3.10;1.80;;;10.70;99.90;;;;;;5008283;28;20544;-48
2022/10/07 02:17:26;;;;;;;3.70;1.97;;;10.50;99.90;;;;;;5008925;28;20446;-49
2022/10/07 02:19:56;;;;;;;3.60;1.83;;;10.30;99.90;;;;;;5008396;28;21097;-48
2022/10/07 02:22:27;;;;;;;2.70;2.03;;;10.50;99.90;;;;;;5008609;28;20447;-48
2022/10/07 02:24:57;;;;;;;4.93;2.30;;;10.20;99.90;;;;;;5008404;28;20467;-47
2022/10/07 02:27:28;;;;;;;3.03;2.33;;;10.00;99.90;;;;;;5008464;28;21026;-48
2022/10/07 02:30:00;;;;;;;3.23;2.37;;;10.00;99.90;;;;;;5008625;28;20439;-49
2022/10/07 02:32:28;;;;;;;5.07;1.90;;;10.30;99.90;;;;;;5008265;28;21025;-48
2022/10/07 02:35:01;;;;;;;2.87;2.17;;;10.40;99.90;;;;;;5008105;28;20464;-50
2022/10/07 02:37:32;;;;;;;3.13;2.23;;;10.60;99.90;;;;;;5008392;28;20539;-48
2022/10/07 02:39:59;;;;;;;2.77;2.20;;;10.40;99.90;;;;;;5008133;28;20848;-48
2022/10/07 02:42:32;;;;;;;6.93;2.63;;;9.80;99.90;;;;;;5008608;28;20454;-49
2022/10/07 02:45:09;;;;;;;7.40;2.37;;;10.00;99.90;;;;;;5008124;28;20554;-48
2022/10/07 02:47:40;;;;;;;6.07;2.20;;;10.40;99.90;;;;;;5010982;28;20532;-49
2022/10/07 02:50:12;;;;;;;2.30;2.10;;;10.50;99.90;;;;;;5011496;28;20864;-48
2022/10/07 02:52:41;;;;;;;2.70;1.90;;;10.50;99.90;;;;;;5011543;28;20866;-50
2022/10/07 02:55:12;;;;;;;2.70;2.00;;;10.60;99.90;;;;;;5011445;28;20482;-48
2022/10/07 02:57:44;;;;;;;2.63;2.00;;;10.60;99.90;;;;;;5011799;28;20451;-48
2022/10/07 03:00:13;;;;;;;2.17;1.60;;;10.30;99.90;;;;;;5011308;28;20481;-47
2022/10/07 03:02:46;;;;;;;4.83;2.57;;;10.10;99.90;;;;;;5011697;28;20453;-48
2022/10/07 03:05:18;;;;;;;3.23;2.10;;;10.10;99.90;;;;;;5011300;28;20464;-50
2022/10/07 03:07:45;;;;;;;4.40;2.30;;;10.40;99.90;;;;;;5011377;28;20462;-48
2022/10/07 03:10:13;;;;;;;4.30;2.00;;;10.50;99.90;;;;;;5011319;28;20447;-47
2022/10/07 03:12:40;;;;;;;4.53;1.90;;;10.50;99.90;;;;;;5010967;28;20447;-47
2022/10/07 03:15:10;;;;;;;5.40;2.50;;;10.50;99.90;;;;;;5011043;28;20507;-47
2022/10/07 03:17:38;;;;;;;3.83;1.67;;;10.40;99.90;;;;;;5011544;28;20443;-48
2022/10/07 03:20:06;;;;;;;3.57;2.07;;;10.50;99.90;;;;;;5010861;28;20468;-48
2022/10/07 03:22:33;;;;;;;2.33;1.90;;;10.50;99.90;;;;;;5011053;28;20443;-47
2022/10/07 03:25:00;;;;;;;2.00;1.80;;;10.50;99.90;;;;;;5010893;28;20473;-48
2022/10/07 03:27:27;;;;;;;1.70;1.50;;;10.50;99.90;;;;;;5011063;28;20443;-48
2022/10/07 03:29:57;;;;;;;1.63;1.37;;;10.50;99.90;;;;;;5011301;28;20467;-48
2022/10/07 03:32:25;;;;;;;3.07;2.43;;;10.30;99.90;;;;;;5011357;28;20470;-47
2022/10/07 03:34:53;;;;;;;2.00;1.70;;;10.20;99.90;;;;;;5010834;28;20477;-47
2022/10/07 03:37:20;;;;;;;3.73;1.97;;;10.10;99.90;;;;;;5011070;28;20453;-48
2022/10/07 03:39:47;;;;;;;5.03;1.90;;;10.30;99.90;;;;;;5010978;28;20487;-48
2022/10/07 03:42:14;;;;;;;5.93;2.20;;;10.20;99.90;;;;;;5010682;28;20876;-49
2022/10/07 03:44:40;;;;;;;2.93;2.30;;;9.50;99.90;;;;;;5010724;28;20467;-48
2022/10/07 03:47:08;;;;;;;3.30;2.70;;;9.20;99.90;;;;;;5011058;28;20456;-48
2022/10/07 03:49:35;;;;;;;3.80;2.30;;;9.20;99.90;;;;;;5010718;28;20447;-48
2022/10/07 03:52:03;;;;;;;2.40;1.97;;;9.30;99.90;;;;;;5010594;28;20526;-47
2022/10/07 03:54:30;;;;;;;2.80;2.23;;;9.70;99.90;;;;;;5010437;28;20905;-48
2022/10/07 03:56:57;;;;;;;3.90;2.37;;;9.70;99.90;;;;;;5010661;28;20501;-49
2022/10/07 03:59:24;;;;;;;2.37;1.70;;;9.80;99.90;;;;;;5010723;28;20531;-48
2022/10/07 04:01:50;;;;;;;3.23;2.17;;;10.00;99.90;;;;;;5010399;28;20563;-48
2022/10/07 04:04:19;;;;;;;3.30;2.03;;;10.20;99.90;;;;;;5010160;28;20555;-48
2022/10/07 04:06:46;;;;;;;4.40;4.00;;;10.30;99.90;;;;;;5010443;28;20581;-48
2022/10/07 04:09:15;;;;;;;2.20;1.73;;;10.40;99.90;;;;;;5010728;28;20523;-48
2022/10/07 04:11:42;;;;;;;2.77;2.00;;;10.40;99.90;;;;;;5010517;28;20471;-50
2022/10/07 04:14:09;;;;;;;3.00;2.40;;;10.20;99.90;;;;;;5009907;28;20464;-48
2022/10/07 04:16:37;;;;;;;2.57;1.77;;;10.10;99.90;;;;;;5010158;28;21017;-50
2022/10/07 04:19:06;;;;;;;3.43;2.20;;;10.20;99.90;;;;;;5010249;28;20442;-48
2022/10/07 04:21:33;;;;;;;2.10;1.90;;;10.30;99.90;;;;;;5009851;28;20487;-49
2022/10/07 04:23:59;;;;;;;6.43;2.53;;;10.30;99.90;;;;;;5010098;28;20531;-47
2022/10/07 04:26:28;;;;;;;3.80;2.27;;;9.70;99.90;;;;;;5010485;28;20547;-48
2022/10/07 04:28:54;;;;;;;4.60;2.80;;;9.50;99.90;;;;;;5010136;28;20439;-50
2022/10/07 04:31:21;;;;;;;3.23;2.10;;;9.90;99.90;;;;;;5010077;28;20440;-47
2022/10/07 04:33:48;;;;;;;5.33;3.40;;;10.00;99.90;;;;;;5010533;28;20455;-47
2022/10/07 04:36:15;;;;;;;2.40;1.93;;;10.10;99.90;;;;;;5010182;28;20459;-48
2022/10/07 04:38:44;;;;;;;4.07;2.33;;;9.50;99.90;;;;;;5010202;28;20458;-47
2022/10/07 04:41:10;;;;;;;5.53;4.80;;;9.60;99.90;;;;;;5009714;28;21001;-48
2022/10/07 04:43:39;;;;;;;3.30;3.00;;;9.90;99.90;;;;;;5009783;28;20455;-48
2022/10/07 04:46:07;;;;;;;3.57;2.87;;;10.00;99.90;;;;;;5010233;28;20567;-47
2022/10/07 04:48:35;;;;;;;11.40;9.67;;;9.80;99.90;;;;;;5009876;28;20500;-47
2022/10/07 04:51:03;;;;;;;17.93;16.13;;;9.80;99.90;;;;;;5009847;28;20450;-50
2022/10/07 04:53:30;;;;;;;6.20;5.60;;;10.00;99.90;;;;;;5009610;28;20534;-48
2022/10/07 04:55:58;;;;;;;9.70;8.70;;;10.00;99.90;;;;;;5009509;28;20484;-47
2022/10/07 04:58:26;;;;;;;14.53;13.13;;;10.00;99.90;;;;;;5009389;28;20456;-47
2022/10/07 05:00:55;;;;;;;8.93;8.00;;;10.00;99.90;;;;;;5009847;28;20735;-47
2022/10/07 05:03:23;;;;;;;5.63;5.00;;;9.90;99.90;;;;;;5009474;28;20452;-47
2022/10/07 05:05:52;;;;;;;4.27;3.60;;;9.90;99.90;;;;;;5009733;28;20486;-48
2022/10/07 05:08:20;;;;;;;4.63;2.97;;;9.80;99.90;;;;;;5009990;28;20440;-47
2022/10/07 05:10:47;;;;;;;4.83;3.07;;;9.60;99.90;;;;;;5008684;28;20833;-48
2022/10/07 05:13:16;;;;;;;3.97;3.60;;;9.30;99.90;;;;;;5009384;28;20447;-47
2022/10/07 05:15:50;;;;;;;3.53;3.23;;;9.10;99.90;;;;;;5009842;28;20499;-48
2022/10/07 05:18:19;;;;;;;3.60;3.23;;;9.00;99.90;;;;;;5009657;28;20443;-47
2022/10/07 05:20:47;;;;;;;5.20;2.83;;;9.20;99.90;;;;;;5009674;28;20475;-50
2022/10/07 05:23:14;;;;;;;4.50;2.03;;;9.40;99.90;;;;;;5008708;28;20590;-47
2022/10/07 05:25:42;;;;;;;6.13;3.80;;;9.70;99.90;;;;;;5009627;28;20463;-47
2022/10/07 05:28:09;;;;;;;3.43;2.67;;;9.70;99.90;;;;;;5009090;28;21041;-47
2022/10/07 05:30:36;;;;;;;5.43;3.10;;;9.80;99.90;;;;;;5009144;28;21005;-47
2022/10/07 05:33:03;;;;;;;4.40;2.77;;;9.20;99.90;;;;;;5009353;28;20443;-48
2022/10/07 05:35:32;;;;;;;3.60;2.80;;;9.30;99.90;;;;;;5008904;28;20985;-47
2022/10/07 05:37:59;;;;;;;3.67;3.10;;;9.40;99.90;;;;;;5009002;28;20454;-47
2022/10/07 05:40:26;;;;;;;2.77;2.30;;;9.50;99.90;;;;;;5009159;28;20485;-47
2022/10/07 05:42:53;;;;;;;4.13;2.30;;;9.30;99.90;;;;;;5008876;28;20458;-51
2022/10/07 05:45:20;;;;;;;6.80;2.30;;;9.60;99.90;;;;;;5008800;28;20459;-47
2022/10/07 05:47:47;;;;;;;3.10;2.43;;;9.10;99.90;;;;;;5008885;28;20534;-47
2022/10/07 05:50:14;;;;;;;3.50;3.20;;;8.70;99.90;;;;;;5009223;28;20458;-49
2022/10/07 05:52:44;;;;;;;9.03;8.23;;;8.80;99.90;;;;;;5009128;28;20478;-47
2022/10/07 05:55:11;;;;;;;16.30;15.20;;;9.10;99.90;;;;;;5008646;28;20486;-47
2022/10/07 05:57:38;;;;;;;7.50;6.80;;;9.40;99.90;;;;;;5009119;28;20554;-47
2022/10/07 06:00:07;;;;;;;4.93;2.80;;;9.50;99.90;;;;;;5008891;28;20455;-47
2022/10/07 06:02:34;;;;;;;2.47;2.27;;;9.60;99.90;;;;;;5008751;28;20483;-47
2022/10/07 06:05:01;;;;;;;3.80;2.33;;;9.60;99.90;;;;;;5008486;28;21031;-47
2022/10/07 06:07:29;;;;;;;3.50;2.80;;;9.60;99.90;;;;;;5009092;28;20534;-47
2022/10/07 06:15:25;;;;;;;5.67;3.23;;;9.00;99.90;;;;;;5008507;28;20447;-48
2022/10/07 06:17:52;;;;;;;4.00;2.87;;;9.30;99.90;;;;;;5008716;28;20528;-47
2022/10/07 06:20:19;;;;;;;3.23;2.90;;;9.50;99.90;;;;;;5008641;28;20526;-47
2022/10/07 06:22:46;;;;;;;4.60;3.10;;;9.60;99.90;;;;;;5011163;28;20876;-48
2022/10/07 06:25:14;;;;;;;4.23;3.63;;;9.50;99.90;;;;;;5011685;28;21061;-47
2022/10/07 06:27:41;;;;;;;7.20;3.73;;;9.50;99.90;;;;;;5012045;28;20447;-47
2022/10/07 06:30:09;;;;;;;4.57;4.17;;;9.70;99.90;;;;;;5012231;28;20560;-47
2022/10/07 06:32:35;;;;;;;3.23;2.90;;;9.90;99.90;;;;;;5011942;28;20965;-47
2022/10/07 06:35:02;;;;;;;4.90;3.00;;;9.80;99.90;;;;;;5011764;28;20502;-47
2022/10/07 06:37:32;;;;;;;3.60;2.43;;;9.80;99.90;;;;;;5011923;28;20465;-48
2022/10/07 06:39:59;;;;;;;4.37;2.90;;;9.70;99.90;;;;;;5012127;28;20519;-47
2022/10/07 06:42:27;;;;;;;3.93;2.47;;;9.80;99.90;;;;;;5011550;28;20931;-47
2022/10/07 06:44:54;;;;;;;3.53;2.60;;;9.90;99.90;;;;;;5011427;28;20467;-47
2022/10/07 06:47:21;;;;;;;2.80;2.00;;;9.90;99.90;;;;;;5011842;28;20483;-49
2022/10/07 06:49:48;;;;;;;2.83;1.93;;;10.00;99.90;;;;;;5011530;28;20448;-47
2022/10/07 06:52:15;;;;;;;2.43;2.13;;;9.50;99.90;;;;;;5011582;28;20889;-47
2022/10/07 06:54:42;;;;;;;3.17;2.00;;;9.20;99.90;;;;;;5011177;28;20506;-49
2022/10/07 06:57:09;;;;;;;2.60;2.00;;;9.10;99.90;;;;;;5011384;28;20813;-47
2022/10/07 06:59:37;;;;;;;2.80;2.10;;;9.10;99.90;;;;;;5011499;28;20451;-48
2022/10/07 07:02:05;;;;;;;3.83;2.30;;;9.30;99.90;;;;;;5011662;28;20482;-49
2022/10/07 07:04:32;;;;;;;7.60;2.87;;;9.60;99.90;;;;;;5010962;28;20911;-47
2022/10/07 07:06:59;;;;;;;4.73;3.63;;;9.80;99.90;;;;;;5011234;28;21009;-48
2022/10/07 07:09:26;;;;;;;6.40;4.73;;;9.80;99.90;;;;;;5011365;28;20450;-48
2022/10/07 07:11:53;;;;;;;8.80;6.60;;;9.40;99.90;;;;;;5011168;28;20812;-47
2022/10/07 07:14:20;;;;;;;11.07;7.03;;;9.60;99.90;;;;;;5010897;28;20978;-47
2022/10/07 07:16:48;;;;;;;14.93;6.83;;;9.80;99.90;;;;;;5011106;28;20452;-48
2022/10/07 07:19:15;;;;;;;9.90;5.40;;;9.50;99.90;;;;;;5011373;28;20534;-48
2022/10/07 07:21:42;;;;;;;6.60;4.63;;;9.20;99.90;;;;;;5011013;28;21031;-47
2022/10/07 07:24:10;;;;;;;5.53;4.10;;;9.10;99.90;;;;;;5010813;28;20474;-47
2022/10/07 07:26:38;;;;;;;4.33;3.40;;;9.50;99.90;;;;;;5011702;28;20448;-47
2022/10/07 07:29:06;;;;;;;5.57;3.50;;;9.70;99.90;;;;;;5011075;28;20486;-47
2022/10/07 07:31:34;;;;;;;6.80;4.10;;;9.90;99.90;;;;;;5011074;28;20444;-47
2022/10/07 07:34:05;;;;;;;4.83;3.20;;;9.90;99.90;;;;;;5010687;28;20443;-47
2022/10/07 07:36:36;;;;;;;5.47;3.37;;;9.60;99.90;;;;;;5011365;28;20758;-48
2022/10/07 07:39:06;;;;;;;3.53;3.30;;;9.70;99.90;;;;;;5011127;28;20490;-46
2022/10/07 07:41:35;;;;;;;5.93;2.83;;;9.70;99.90;;;;;;5011027;28;20482;-50
2022/10/07 07:44:04;;;;;;;4.50;2.37;;;9.80;99.90;;;;;;5010529;28;20471;-47
2022/10/07 07:46:35;;;;;;;4.93;2.60;;;9.90;99.90;;;;;;5011066;28;20483;-49
2022/10/07 07:49:03;;;;;;;4.33;2.90;;;9.50;99.90;;;;;;5010650;28;20526;-48
2022/10/07 07:51:31;;;;;;;2.73;2.53;;;9.40;99.90;;;;;;5010611;28;20447;-47
2022/10/07 07:53:59;;;;;;;4.73;2.80;;;9.50;99.90;;;;;;5009944;28;20485;-46
2022/10/07 07:56:27;;;;;;;3.73;2.43;;;9.60;99.90;;;;;;5012309;28;20455;-48
2022/10/07 07:58:55;;;;;;;7.47;4.80;;;9.50;99.90;;;;;;5010395;28;21007;-47
2022/10/07 08:01:22;;;;;;;6.27;5.73;;;9.50;99.90;;;;;;5010679;28;20486;-47
2022/10/07 08:03:49;;;;;;;4.60;3.40;;;9.70;99.90;;;;;;5010308;28;20531;-47
2022/10/07 08:06:20;;;;;;;6.40;5.60;;;10.00;99.90;;;;;;5010531;28;20444;-50
2022/10/07 08:08:48;;;;;;;8.00;4.90;;;10.30;99.90;;;;;;5010371;28;20475;-47
2022/10/07 08:11:17;;;;;;;4.47;3.23;;;10.30;99.90;;;;;;5010543;28;20541;-48
2022/10/07 08:13:44;;;;;;;6.47;5.23;;;10.50;99.90;;;;;;5010394;28;20452;-48
2022/10/07 08:16:13;;;;;;;6.30;5.57;;;10.70;99.90;;;;;;5010509;28;20536;-50
2022/10/07 08:18:40;;;;;;;6.07;4.43;;;10.80;99.90;;;;;;5010324;28;20822;-47
2022/10/07 08:21:07;;;;;;;6.53;4.90;;;10.80;99.90;;;;;;5009819;28;20485;-48
2022/10/07 08:23:36;;;;;;;5.67;4.53;;;10.80;99.90;;;;;;5010144;28;20463;-47
2022/10/07 08:26:04;;;;;;;12.37;4.70;;;10.80;99.90;;;;;;5010281;28;20495;-47
2022/10/07 08:28:31;;;;;;;10.30;5.10;;;10.90;99.90;;;;;;5010369;28;20454;-47
2022/10/07 08:31:03;;;;;;;5.90;4.50;;;11.00;99.90;;;;;;5010172;28;20528;-47
2022/10/07 08:33:33;;;;;;;7.50;4.50;;;11.10;99.90;;;;;;5010036;28;20457;-47
2022/10/07 08:36:01;;;;;;;7.80;5.47;;;11.20;99.90;;;;;;5009946;28;20499;-47
2022/10/07 08:38:30;;;;;;;11.57;4.90;;;11.20;99.90;;;;;;5010156;28;20446;-47
2022/10/07 08:41:04;;;;;;;7.00;4.00;;;11.20;99.90;;;;;;5010070;28;20443;-48
2022/10/07 08:43:32;;;;;;;8.03;3.90;;;11.30;99.90;;;;;;5009324;28;20546;-48
2022/10/07 08:46:01;;;;;;;5.70;3.90;;;11.30;99.90;;;;;;5009672;28;20465;-47
2022/10/07 08:48:37;;;;;;;6.30;4.10;;;11.40;99.90;;;;;;5009628;28;20442;-47
2022/10/07 08:51:12;;;;;;;3.33;2.63;;;11.40;99.90;;;;;;5009960;28;20455;-48
2022/10/07 08:53:43;;;;;;;3.60;2.60;;;11.50;99.90;;;;;;5009477;28;20449;-47
2022/10/07 08:56:14;;;;;;;5.50;3.03;;;11.60;99.90;;;;;;5009570;28;20530;-47
2022/10/07 08:58:54;;;;;;;6.30;3.10;;;11.80;99.90;;;;;;5009841;28;20525;-48
2022/10/07 09:01:32;;;;;;;2.90;2.50;;;11.90;99.90;;;;;;5008365;28;20448;-48
2022/10/07 09:04:09;;;;;;;2.40;2.03;;;11.90;99.90;;;;;;5008526;28;20533;-49
2022/10/07 09:06:41;;;;;;;5.73;2.47;;;11.90;99.90;;;;;;5008984;28;20954;-48
2022/10/07 09:09:14;;;;;;;16.57;9.90;;;12.00;99.90;;;;;;5009345;28;20479;-48
2022/10/07 09:11:45;;;;;;;8.20;3.50;;;12.10;99.90;;;;;;5009226;28;20452;-47
2022/10/07 09:14:23;;;;;;;5.23;3.10;;;12.20;99.90;;;;;;5008857;28;20839;-48
2022/10/07 09:16:50;;;;;;;3.67;2.10;;;12.40;99.90;;;;;;5009247;28;21018;-47
2022/10/07 09:19:23;;;;;;;3.03;2.40;;;12.50;99.90;;;;;;5008959;28;20952;-48
2022/10/07 09:21:50;;;;;;;2.70;2.07;;;12.50;99.90;;;;;;5008708;28;20484;-48
2022/10/07 09:24:20;;;;;;;6.17;3.13;;;12.60;99.90;;;;;;5008770;28;20845;-46
2022/10/07 09:26:49;;;;;;;4.90;2.70;;;12.70;99.90;;;;;;5009397;28;20489;-48
2022/10/07 09:29:19;;;;;;;10.23;3.17;;;12.70;99.90;;;;;;5009132;28;20450;-47
2022/10/07 09:31:46;;;;;;;6.80;2.80;;;12.80;99.90;;;;;;5009034;28;20446;-47
2022/10/07 09:34:22;;;;;;;22.47;7.40;;;13.00;99.90;;;;;;5009165;28;20505;-47
2022/10/07 09:37:15;;;;;;;9.27;3.50;;;13.10;99.90;;;;;;5009098;28;20459;-47
2022/10/07 09:39:44;;;;;;;16.40;6.57;;;13.20;99.90;;;;;;5008937;28;20452;-49
2022/10/07 09:42:35;;;;;;;18.30;4.17;;;13.30;99.90;;;;;;5008487;28;20586;-47
2022/10/07 09:45:05;;;;;;;5.30;3.20;;;13.40;99.90;;;;;;5007344;28;21011;-49
2022/10/07 09:47:38;;;;;;;3.00;2.30;;;13.40;99.90;;;;;;5006806;28;20455;-49
2022/10/07 09:50:06;;;;;;;3.03;2.37;;;13.60;99.90;;;;;;5007169;28;20815;-47
2022/10/07 09:52:33;;;;;;;4.33;2.87;;;13.60;99.90;;;;;;5006435;28;20828;-48
2022/10/07 09:55:30;;;;;;;3.10;2.43;;;13.60;99.90;;;;;;5006718;28;20481;-47
2022/10/07 09:58:02;;;;;;;8.67;3.10;;;13.80;99.90;;;;;;5007240;28;20457;-48
2022/10/07 10:00:30;;;;;;;5.50;2.57;;;13.90;99.90;;;;;;5007308;28;20970;-47
2022/10/07 10:03:03;;;;;;;6.30;3.70;;;14.00;99.90;;;;;;5007503;28;20494;-47
2022/10/07 10:05:32;;;;;;;6.50;3.10;;;14.00;99.90;;;;;;5007558;28;20924;-48
2022/10/07 10:08:02;;;;;;;3.40;2.40;;;14.30;99.90;;;;;;5007472;28;20459;-47
2022/10/07 10:10:31;;;;;;;2.87;2.37;;;14.50;99.90;;;;;;5007948;28;20469;-47
2022/10/07 10:13:00;;;;;;;3.20;2.30;;;14.50;99.90;;;;;;5007716;28;21033;-47
2022/10/07 10:15:38;;;;;;;2.80;2.50;;;14.50;99.90;;;;;;5007740;28;20476;-47
2022/10/07 10:18:31;;;;;;;3.43;2.60;;;14.70;99.90;;;;;;5008012;28;20450;-47
2022/10/07 10:21:21;;;;;;;3.20;2.30;;;14.70;99.90;;;;;;5006748;28;20443;-47
2022/10/07 10:23:51;;;;;;;3.27;2.53;;;14.60;99.90;;;;;;5007143;28;20574;-47
2022/10/07 10:27:02;;;;;;;3.60;2.50;;;14.50;99.90;;;;;;5007127;28;20821;-47
2022/10/07 10:29:42;;;;;;;3.90;2.70;;;14.50;99.90;;;;;;5008250;28;20443;-50
2022/10/07 10:32:31;;;;;;;3.50;2.13;;;14.80;99.90;;;;;;5008528;28;20445;-47
2022/10/07 10:35:02;;;;;;;2.80;2.27;;;14.70;99.90;;;;;;5007463;28;20466;-48
2022/10/07 10:37:46;;;;;;;2.67;2.37;;;14.80;99.90;;;;;;5008148;28;20435;-47
2022/10/07 10:40:22;;;;;;;2.63;2.40;;;15.00;99.90;;;;;;5008551;28;20526;-47
2022/10/07 10:42:58;;;;;;;3.00;2.60;;;15.00;99.90;;;;;;5007929;28;20489;-47
2022/10/07 10:45:34;;;;;;;3.43;2.80;;;15.20;99.90;;;;;;5008452;28;20835;-47
2022/10/07 10:48:27;;;;;;;5.33;2.97;;;15.20;99.90;;;;;;5008571;28;20457;-47
2022/10/07 10:51:01;;;;;;;3.70;2.70;;;15.30;99.90;;;;;;5008263;28;20455;-48
2022/10/07 10:53:41;;;;;;;2.70;2.33;;;15.30;99.90;;;;;;5007904;28;21014;-47
2022/10/07 10:56:23;;;;;;;6.63;3.03;;;15.20;99.90;;;;;;5008117;28;20474;-47
2022/10/07 10:59:12;;;;;;;3.43;2.77;;;15.30;99.90;;;;;;5008427;28;20485;-48
2022/10/07 11:01:42;;;;;;;4.07;2.67;;;15.50;99.90;;;;;;5007870;28;20443;-48
2022/10/07 11:04:34;;;;;;;2.90;2.70;;;15.60;99.90;;;;;;5008153;28;20483;-48
2022/10/07 11:07:05;;;;;;;3.03;2.73;;;15.70;99.90;;;;;;5008432;28;20443;-48
2022/10/07 11:09:39;;;;;;;3.83;2.77;;;15.70;99.90;;;;;;5011894;28;20450;-48
2022/10/07 11:12:18;;;;;;;3.43;2.83;;;15.70;99.90;;;;;;5011341;28;20958;-48
2022/10/07 11:14:49;;;;;;;4.93;3.00;;;15.60;99.90;;;;;;5011433;28;20505;-48
2022/10/07 11:17:20;;;;;;;4.03;2.83;;;15.70;99.90;;;;;;5011515;28;20446;-50
2022/10/07 11:19:55;;;;;;;9.27;3.40;;;16.00;99.90;;;;;;5011305;28;20450;-49
2022/10/07 11:22:31;;;;;;;3.33;2.87;;;16.10;99.90;;;;;;5010906;28;20561;-49
2022/10/07 11:25:20;;;;;;;3.97;2.97;;;16.10;99.90;;;;;;5010802;28;20977;-50
2022/10/07 11:27:50;;;;;;;9.07;3.00;;;16.10;99.90;;;;;;5011572;28;20443;-48
2022/10/07 11:30:21;;;;;;;6.47;3.20;;;16.10;99.90;;;;;;5011048;28;20444;-48
2022/10/07 11:32:54;;;;;;;6.17;3.83;;;16.10;99.90;;;;;;5011390;28;20483;-48
2022/10/07 11:35:28;;;;;;;3.90;3.23;;;16.10;99.90;;;;;;5010974;28;20495;-47
2022/10/07 11:38:00;;;;;;;7.57;4.33;;;16.20;99.90;;;;;;5010907;28;20447;-48
2022/10/07 11:40:30;;;;;;;3.50;2.60;;;16.30;99.90;;;;;;5010906;28;20454;-48
2022/10/07 11:43:05;;;;;;;3.53;3.23;;;16.40;99.90;;;;;;5010339;28;20574;-48
2022/10/07 11:45:38;;;;;;;4.23;2.80;;;16.50;99.90;;;;;;5010751;28;20459;-48
2022/10/07 11:48:12;;;;;;;3.30;2.70;;;16.60;99.90;;;;;;5011077;28;20443;-48
2022/10/07 11:50:44;;;;;;;2.80;2.60;;;16.70;99.90;;;;;;5010905;28;20444;-49
2022/10/07 11:53:18;;;;;;;2.93;2.50;;;16.60;99.90;;;;;;5010336;28;20450;-47
2022/10/07 11:55:50;;;;;;;5.83;3.10;;;16.50;99.90;;;;;;5010842;28;20497;-48
2022/10/07 11:58:24;;;;;;;7.13;2.90;;;16.60;99.90;;;;;;5010837;28;20455;-50
2022/10/07 12:01:30;;;;;;;3.03;2.23;;;16.40;99.90;;;;;;5010814;28;20453;-48
2022/10/07 12:04:30;;;;;;;3.43;2.63;;;16.50;99.90;;;;;;5010374;28;20484;-48
2022/10/07 12:07:29;;;;;;;4.57;2.67;;;16.70;99.90;;;;;;5010757;28;20440;-48
2022/10/07 12:10:20;;;;;;;4.80;2.67;;;16.80;99.90;;;;;;5013241;28;20456;-48
2022/10/07 12:12:49;;;;;;;3.13;2.70;;;16.90;99.90;;;;;;5010531;28;20475;-50
2022/10/07 12:15:35;;;;;;;5.60;2.83;;;17.00;99.90;;;;;;5010278;28;20832;-48
2022/10/07 12:18:25;;;;;;;3.30;2.50;;;16.70;99.90;;;;;;5010352;28;20471;-48
2022/10/07 12:21:03;;;;;;;3.70;2.70;;;17.00;99.90;;;;;;5010300;28;21034;-48
2022/10/07 12:23:48;;;;;;;3.53;3.07;;;17.00;99.90;;;;;;5009605;28;20888;-50
2022/10/07 12:26:52;;;;;;;3.63;2.80;;;17.10;99.90;;;;;;5010568;28;20526;-48
2022/10/07 12:29:26;;;;;;;8.03;2.93;;;16.80;99.90;;;;;;5009859;28;20467;-48
2022/10/07 12:31:53;;;;;;;3.80;3.03;;;16.60;99.90;;;;;;5010306;28;20449;-48
2022/10/07 12:34:33;;;;;;;4.03;3.00;;;16.80;99.90;;;;;;5009846;28;20552;-48
2022/10/07 12:37:33;;;;;;;2.93;2.63;;;16.70;99.90;;;;;;5009969;28;20507;-47
2022/10/07 12:40:05;;;;;;;5.33;2.50;;;16.80;99.90;;;;;;5012759;28;20448;-48
2022/10/07 12:42:34;;;;;;;3.23;2.57;;;17.10;99.90;;;;;;5009799;28;20961;-47
2022/10/07 12:45:03;;;;;;;5.40;2.77;;;17.50;99.90;;;;;;5009532;28;20470;-50
2022/10/07 12:47:31;;;;;;;3.40;2.70;;;17.40;99.90;;;;;;5009908;28;20454;-48
2022/10/07 12:50:01;;;;;;;3.40;3.03;;;17.40;99.90;;;;;;5009734;28;20959;-48
2022/10/07 12:52:42;;;;;;;4.23;3.10;;;17.60;99.90;;;;;;5009837;28;20486;-48
2022/10/07 12:55:14;;;;;;;5.87;2.90;;;17.60;99.90;;;;;;5009541;28;20472;-48
2022/10/07 12:57:47;;;;;;;5.47;2.57;;;17.50;99.90;;;;;;5010139;28;20527;-48
2022/10/07 13:00:15;;;;;;;4.00;2.70;;;17.50;99.90;;;;;;5010074;28;20440;-50
2022/10/07 13:03:26;;;;;;;6.87;4.60;;;17.60;99.90;;;;;;5009824;28;20547;-50
2022/10/07 13:06:27;;;;;;;5.33;3.83;;;17.50;99.90;;;;;;5009460;28;20471;-49
2022/10/07 13:09:25;;;;;;;35.83;6.60;;;17.50;99.90;;;;;;5009704;28;20447;-48
2022/10/07 13:12:22;;;;;;;30.13;7.37;;;17.90;99.90;;;;;;5009487;28;20448;-48
2022/10/07 13:15:04;;;;;;;5.10;3.43;;;17.80;99.90;;;;;;5009394;28;20544;-48
2022/10/07 13:17:41;;;;;;;9.43;2.83;;;17.80;99.90;;;;;;5009556;28;20990;-48